Nan, Thailand
Current Conditions -  °F | °C
As of 11:00 AM on Thursday 23 Oct 2014 (Local Time) from VTCN Reporting Station
Overcast Overcast  
Wind Chill: 81°   Ceiling: 2000
Heat Index: 84°   Visibility: 6mi
Dew Point: 70°   Wind: 2mph
Humidity: 70%   Direction: 50°NE
Pressure: 29.97"   Gusts: NA
Location:  18.78°N, 100.77°E
Report Text: VTCN 230400Z 05002KT 9999 BKN020 OVC100 27/21 Q1015 A3000RWY/02 INFO/D
Loading
Personal Weather Stations






























Interactive Weather Map
Tropical Storm Tracking
New forecast layout! Learn more

10-Day Weather Forecast

Advertisements
Track Severe Weather on mobile